Five Corners, Washington
Current Conditions -  °F | °C
As of 5:41 AM on Friday 19 Dec 2014 (Local Time) from KGRF Reporting Station
Clear Clear  
Wind Chill: 41°   Ceiling: Unl
Heat Index: 45°   Visibility: 10mi
Dew Point: 43°   Wind: 7mph
Humidity: 93%   Direction: 140°SE
Pressure: 29.84"   Gusts: NA
Location:  46.8659°N, 122.534°W
Report Text: KGRF 191341Z AUTO 14006KT 10SM CLR 07/06 A2984 RMK AO2 DZB1258
Loading
Personal Weather Stations






























Interactive Weather Map New forecast layout! Learn more

10-Day Weather Forecast

Advertisements
Track Severe Weather on mobile